sensor_id;sensor_type;location;lat;lon;timestamp;P1;durP1;ratioP1;P2;durP2;ratioP2
79027;SDS011;68427;48.476;19.102;2023-04-01T00:01:11;3.05;;;2.28;;
79027;SDS011;68427;48.476;19.102;2023-04-01T00:03:41;3.08;;;2.35;;
79027;SDS011;68427;48.476;19.102;2023-04-01T00:06:07;3.70;;;1.77;;
79027;SDS011;68427;48.476;19.102;2023-04-01T00:08:36;2.90;;;2.20;;
79027;SDS011;68427;48.476;19.102;2023-04-01T00:11:03;3.28;;;1.88;;
79027;SDS011;68427;48.476;19.102;2023-04-01T00:13:29;3.20;;;1.83;;
79027;SDS011;68427;48.476;19.102;2023-04-01T00:15:55;2.33;;;1.77;;
79027;SDS011;68427;48.476;19.102;2023-04-01T00:18:21;3.58;;;2.38;;
79027;SDS011;68427;48.476;19.102;2023-04-01T00:20:47;4.32;;;3.47;;
79027;SDS011;68427;48.476;19.102;2023-04-01T00:23:15;6.68;;;6.18;;
79027;SDS011;68427;48.476;19.102;2023-04-01T00:25:41;5.88;;;3.05;;
79027;SDS011;68427;48.476;19.102;2023-04-01T00:28:09;14.25;;;6.53;;
79027;SDS011;68427;48.476;19.102;2023-04-01T00:30:35;12.80;;;6.20;;
79027;SDS011;68427;48.476;19.102;2023-04-01T00:33:02;16.65;;;8.35;;
79027;SDS011;68427;48.476;19.102;2023-04-01T00:35:28;17.85;;;9.95;;
79027;SDS011;68427;48.476;19.102;2023-04-01T00:37:54;18.42;;;9.38;;
79027;SDS011;68427;48.476;19.102;2023-04-01T00:40:25;20.80;;;9.40;;
79027;SDS011;68427;48.476;19.102;2023-04-01T00:42:53;16.17;;;10.18;;
79027;SDS011;68427;48.476;19.102;2023-04-01T00:45:27;18.10;;;8.95;;
79027;SDS011;68427;48.476;19.102;2023-04-01T00:47:56;13.07;;;9.73;;
79027;SDS011;68427;48.476;19.102;2023-04-01T00:50:24;7.40;;;6.07;;
79027;SDS011;68427;48.476;19.102;2023-04-01T00:52:53;8.25;;;7.57;;
79027;SDS011;68427;48.476;19.102;2023-04-01T00:55:19;5.18;;;3.53;;
79027;SDS011;68427;48.476;19.102;2023-04-01T00:57:48;4.45;;;2.88;;
79027;SDS011;68427;48.476;19.102;2023-04-01T01:02:44;4.97;;;2.80;;
79027;SDS011;68427;48.476;19.102;2023-04-01T01:05:11;4.28;;;2.00;;
79027;SDS011;68427;48.476;19.102;2023-04-01T01:07:39;5.60;;;2.50;;
79027;SDS011;68427;48.476;19.102;2023-04-01T01:10:12;3.63;;;2.55;;
79027;SDS011;68427;48.476;19.102;2023-04-01T01:12:45;3.53;;;1.75;;
79027;SDS011;68427;48.476;19.102;2023-04-01T01:15:16;3.28;;;1.80;;
79027;SDS011;68427;48.476;19.102;2023-04-01T01:17:50;5.57;;;3.60;;
79027;SDS011;68427;48.476;19.102;2023-04-01T01:23:54;5.50;;;5.10;;
79027;SDS011;68427;48.476;19.102;2023-04-01T01:26:36;4.68;;;3.13;;
79027;SDS011;68427;48.476;19.102;2023-04-01T01:29:43;5.50;;;5.05;;
79027;SDS011;68427;48.476;19.102;2023-04-01T01:32:25;5.10;;;4.63;;
79027;SDS011;68427;48.476;19.102;2023-04-01T01:35:14;5.13;;;4.68;;
79027;SDS011;68427;48.476;19.102;2023-04-01T01:37:45;3.22;;;1.92;;
79027;SDS011;68427;48.476;19.102;2023-04-01T01:40:15;3.85;;;1.67;;
79027;SDS011;68427;48.476;19.102;2023-04-01T01:42:42;5.32;;;3.83;;
79027;SDS011;68427;48.476;19.102;2023-04-01T01:45:12;7.13;;;4.05;;
79027;SDS011;68427;48.476;19.102;2023-04-01T01:47:43;7.55;;;6.55;;
79027;SDS011;68427;48.476;19.102;2023-04-01T01:50:10;7.45;;;4.38;;
79027;SDS011;68427;48.476;19.102;2023-04-01T01:52:39;6.93;;;5.43;;
79027;SDS011;68427;48.476;19.102;2023-04-01T01:57:51;5.53;;;4.05;;
79027;SDS011;68427;48.476;19.102;2023-04-01T02:00:17;4.78;;;2.65;;
79027;SDS011;68427;48.476;19.102;2023-04-01T02:02:45;4.60;;;4.30;;
79027;SDS011;68427;48.476;19.102;2023-04-01T02:05:14;5.03;;;4.57;;
79027;SDS011;68427;48.476;19.102;2023-04-01T02:07:46;3.03;;;2.42;;
79027;SDS011;68427;48.476;19.102;2023-04-01T02:10:16;4.93;;;4.63;;
79027;SDS011;68427;48.476;19.102;2023-04-01T02:12:45;3.65;;;2.10;;
79027;SDS011;68427;48.476;19.102;2023-04-01T02:15:13;9.45;;;8.85;;
79027;SDS011;68427;48.476;19.102;2023-04-01T02:17:42;5.50;;;5.05;;
79027;SDS011;68427;48.476;19.102;2023-04-01T02:20:11;5.60;;;3.55;;
79027;SDS011;68427;48.476;19.102;2023-04-01T02:22:42;4.30;;;3.15;;
79027;SDS011;68427;48.476;19.102;2023-04-01T02:25:13;3.25;;;2.22;;
79027;SDS011;68427;48.476;19.102;2023-04-01T02:27:41;7.72;;;7.22;;
79027;SDS011;68427;48.476;19.102;2023-04-01T02:30:10;3.47;;;2.28;;
79027;SDS011;68427;48.476;19.102;2023-04-01T02:32:37;5.10;;;4.68;;
79027;SDS011;68427;48.476;19.102;2023-04-01T02:35:04;2.67;;;1.75;;
79027;SDS011;68427;48.476;19.102;2023-04-01T02:37:31;4.57;;;4.18;;
79027;SDS011;68427;48.476;19.102;2023-04-01T02:40:00;2.35;;;1.75;;
79027;SDS011;68427;48.476;19.102;2023-04-01T02:42:26;2.75;;;2.10;;
79027;SDS011;68427;48.476;19.102;2023-04-01T02:44:51;6.55;;;6.07;;
79027;SDS011;68427;48.476;19.102;2023-04-01T02:47:17;4.78;;;4.35;;
79027;SDS011;68427;48.476;19.102;2023-04-01T02:49:43;5.53;;;5.03;;
79027;SDS011;68427;48.476;19.102;2023-04-01T02:52:09;3.47;;;2.53;;
79027;SDS011;68427;48.476;19.102;2023-04-01T02:54:34;5.68;;;5.18;;
79027;SDS011;68427;48.476;19.102;2023-04-01T02:57:02;5.68;;;5.18;;
79027;SDS011;68427;48.476;19.102;2023-04-01T02:59:27;3.42;;;2.63;;
79027;SDS011;68427;48.476;19.102;2023-04-01T03:01:53;3.75;;;3.33;;
79027;SDS011;68427;48.476;19.102;2023-04-01T03:04:19;2.67;;;1.98;;
79027;SDS011;68427;48.476;19.102;2023-04-01T03:06:45;4.70;;;2.53;;
79027;SDS011;68427;48.476;19.102;2023-04-01T03:09:10;2.30;;;1.92;;
79027;SDS011;68427;48.476;19.102;2023-04-01T03:11:36;6.05;;;2.08;;
79027;SDS011;68427;48.476;19.102;2023-04-01T03:14:03;3.20;;;1.88;;
79027;SDS011;68427;48.476;19.102;2023-04-01T03:16:29;6.78;;;6.32;;
79027;SDS011;68427;48.476;19.102;2023-04-01T03:18:55;2.80;;;2.17;;
79027;SDS011;68427;48.476;19.102;2023-04-01T03:21:24;8.52;;;7.93;;
79027;SDS011;68427;48.476;19.102;2023-04-01T03:23:50;4.13;;;2.28;;
79027;SDS011;68427;48.476;19.102;2023-04-01T03:26:15;5.05;;;2.17;;
79027;SDS011;68427;48.476;19.102;2023-04-01T03:28:41;5.85;;;5.45;;
79027;SDS011;68427;48.476;19.102;2023-04-01T03:31:09;5.75;;;2.15;;
79027;SDS011;68427;48.476;19.102;2023-04-01T03:33:35;6.45;;;5.95;;
79027;SDS011;68427;48.476;19.102;2023-04-01T03:36:01;2.67;;;1.58;;
79027;SDS011;68427;48.476;19.102;2023-04-01T03:38:28;2.50;;;1.10;;
79027;SDS011;68427;48.476;19.102;2023-04-01T03:40:54;6.78;;;6.22;;
79027;SDS011;68427;48.476;19.102;2023-04-01T03:43:19;3.08;;;1.33;;
79027;SDS011;68427;48.476;19.102;2023-04-01T03:45:45;5.78;;;5.32;;
79027;SDS011;68427;48.476;19.102;2023-04-01T03:48:13;4.43;;;2.03;;
79027;SDS011;68427;48.476;19.102;2023-04-01T03:50:39;4.80;;;2.55;;
79027;SDS011;68427;48.476;19.102;2023-04-01T03:53:05;6.65;;;3.75;;
79027;SDS011;68427;48.476;19.102;2023-04-01T03:55:31;7.47;;;6.80;;
79027;SDS011;68427;48.476;19.102;2023-04-01T03:57:56;6.60;;;6.10;;
79027;SDS011;68427;48.476;19.102;2023-04-01T04:00:22;5.63;;;5.30;;
79027;SDS011;68427;48.476;19.102;2023-04-01T04:02:48;6.05;;;5.55;;
79027;SDS011;68427;48.476;19.102;2023-04-01T04:05:15;12.02;;;5.68;;
79027;SDS011;68427;48.476;19.102;2023-04-01T04:07:41;10.80;;;4.47;;
79027;SDS011;68427;48.476;19.102;2023-04-01T04:10:07;15.52;;;10.48;;
79027;SDS011;68427;48.476;19.102;2023-04-01T04:12:33;13.02;;;5.78;;
79027;SDS011;68427;48.476;19.102;2023-04-01T04:14:59;14.25;;;10.85;;
79027;SDS011;68427;48.476;19.102;2023-04-01T04:17:24;11.40;;;8.95;;
79027;SDS011;68427;48.476;19.102;2023-04-01T04:19:51;11.20;;;5.68;;
79027;SDS011;68427;48.476;19.102;2023-04-01T04:22:18;18.27;;;13.00;;
79027;SDS011;68427;48.476;19.102;2023-04-01T04:24:43;12.85;;;9.90;;
79027;SDS011;68427;48.476;19.102;2023-04-01T04:27:09;12.90;;;9.30;;
79027;SDS011;68427;48.476;19.102;2023-04-01T04:29:35;9.75;;;7.75;;
79027;SDS011;68427;48.476;19.102;2023-04-01T04:32:02;9.32;;;8.43;;
79027;SDS011;68427;48.476;19.102;2023-04-01T04:34:28;7.45;;;6.50;;
79027;SDS011;68427;48.476;19.102;2023-04-01T04:36:53;5.68;;;2.75;;
79027;SDS011;68427;48.476;19.102;2023-04-01T04:39:21;4.22;;;2.20;;
79027;SDS011;68427;48.476;19.102;2023-04-01T04:41:46;4.60;;;3.33;;
79027;SDS011;68427;48.476;19.102;2023-04-01T04:44:12;5.97;;;3.00;;
79027;SDS011;68427;48.476;19.102;2023-04-01T04:46:38;8.30;;;3.40;;
79027;SDS011;68427;48.476;19.102;2023-04-01T04:49:04;7.20;;;4.00;;
79027;SDS011;68427;48.476;19.102;2023-04-01T04:51:30;8.25;;;5.82;;
79027;SDS011;68427;48.476;19.102;2023-04-01T04:53:59;7.63;;;4.43;;
79027;SDS011;68427;48.476;19.102;2023-04-01T04:56:26;12.45;;;6.15;;
79027;SDS011;68427;48.476;19.102;2023-04-01T04:58:51;17.40;;;10.85;;
79027;SDS011;68427;48.476;19.102;2023-04-01T05:01:18;12.52;;;6.82;;
79027;SDS011;68427;48.476;19.102;2023-04-01T05:03:44;9.95;;;4.25;;
79027;SDS011;68427;48.476;19.102;2023-04-01T05:06:11;6.72;;;3.17;;
79027;SDS011;68427;48.476;19.102;2023-04-01T05:08:38;8.98;;;7.82;;
79027;SDS011;68427;48.476;19.102;2023-04-01T05:11:06;8.65;;;7.90;;
79027;SDS011;68427;48.476;19.102;2023-04-01T05:13:36;27.65;;;11.43;;
79027;SDS011;68427;48.476;19.102;2023-04-01T05:16:02;10.93;;;7.95;;
79027;SDS011;68427;48.476;19.102;2023-04-01T05:18:27;9.80;;;8.40;;
79027;SDS011;68427;48.476;19.102;2023-04-01T05:20:53;6.93;;;3.72;;
79027;SDS011;68427;48.476;19.102;2023-04-01T05:23:20;10.80;;;8.15;;
79027;SDS011;68427;48.476;19.102;2023-04-01T05:25:47;13.30;;;6.47;;
79027;SDS011;68427;48.476;19.102;2023-04-01T05:28:13;21.23;;;9.48;;
79027;SDS011;68427;48.476;19.102;2023-04-01T05:30:41;14.75;;;12.25;;
79027;SDS011;68427;48.476;19.102;2023-04-01T05:33:07;12.75;;;6.47;;
79027;SDS011;68427;48.476;19.102;2023-04-01T05:35:33;14.57;;;11.02;;
79027;SDS011;68427;48.476;19.102;2023-04-01T05:37:59;15.10;;;6.78;;
79027;SDS011;68427;48.476;19.102;2023-04-01T05:40:25;12.80;;;7.07;;
79027;SDS011;68427;48.476;19.102;2023-04-01T05:42:50;14.57;;;11.68;;
79027;SDS011;68427;48.476;19.102;2023-04-01T05:45:16;15.18;;;11.45;;
79027;SDS011;68427;48.476;19.102;2023-04-01T05:47:43;12.10;;;6.45;;
79027;SDS011;68427;48.476;19.102;2023-04-01T05:50:09;12.05;;;5.90;;
79027;SDS011;68427;48.476;19.102;2023-04-01T05:52:36;12.07;;;9.20;;
79027;SDS011;68427;48.476;19.102;2023-04-01T05:55:01;9.23;;;5.63;;
79027;SDS011;68427;48.476;19.102;2023-04-01T05:57:27;10.50;;;6.13;;
79027;SDS011;68427;48.476;19.102;2023-04-01T05:59:53;9.70;;;5.85;;
79027;SDS011;68427;48.476;19.102;2023-04-01T06:02:19;15.13;;;7.20;;
79027;SDS011;68427;48.476;19.102;2023-04-01T06:04:46;10.70;;;8.52;;
79027;SDS011;68427;48.476;19.102;2023-04-01T06:07:12;10.60;;;5.75;;
79027;SDS011;68427;48.476;19.102;2023-04-01T06:09:39;9.07;;;8.07;;
79027;SDS011;68427;48.476;19.102;2023-04-01T06:12:13;9.73;;;7.50;;
79027;SDS011;68427;48.476;19.102;2023-04-01T06:14:54;15.27;;;8.43;;
79027;SDS011;68427;48.476;19.102;2023-04-01T06:17:30;20.63;;;9.82;;
79027;SDS011;68427;48.476;19.102;2023-04-01T06:20:09;14.57;;;11.27;;
79027;SDS011;68427;48.476;19.102;2023-04-01T06:22:47;25.35;;;11.02;;
79027;SDS011;68427;48.476;19.102;2023-04-01T06:25:36;30.88;;;18.38;;
79027;SDS011;68427;48.476;19.102;2023-04-01T06:28:21;18.88;;;10.60;;
79027;SDS011;68427;48.476;19.102;2023-04-01T06:31:06;11.43;;;9.13;;
79027;SDS011;68427;48.476;19.102;2023-04-01T06:33:44;10.13;;;6.50;;
79027;SDS011;68427;48.476;19.102;2023-04-01T06:36:30;14.85;;;11.40;;
79027;SDS011;68427;48.476;19.102;2023-04-01T06:39:19;14.80;;;7.30;;
79027;SDS011;68427;48.476;19.102;2023-04-01T06:42:06;10.45;;;5.22;;
79027;SDS011;68427;48.476;19.102;2023-04-01T06:44:41;8.10;;;4.43;;
79027;SDS011;68427;48.476;19.102;2023-04-01T06:47:21;4.22;;;2.08;;
79027;SDS011;68427;48.476;19.102;2023-04-01T06:49:57;7.90;;;4.97;;
79027;SDS011;68427;48.476;19.102;2023-04-01T06:52:34;4.18;;;2.10;;
79027;SDS011;68427;48.476;19.102;2023-04-01T06:55:12;3.83;;;1.40;;
79027;SDS011;68427;48.476;19.102;2023-04-01T06:57:46;3.42;;;2.55;;
79027;SDS011;68427;48.476;19.102;2023-04-01T07:00:15;6.43;;;6.00;;
79027;SDS011;68427;48.476;19.102;2023-04-01T07:02:49;3.45;;;1.67;;
79027;SDS011;68427;48.476;19.102;2023-04-01T07:05:23;3.72;;;2.22;;
79027;SDS011;68427;48.476;19.102;2023-04-01T07:07:56;2.55;;;1.55;;
79027;SDS011;68427;48.476;19.102;2023-04-01T07:10:30;3.33;;;1.52;;
79027;SDS011;68427;48.476;19.102;2023-04-01T07:13:02;5.68;;;2.58;;
79027;SDS011;68427;48.476;19.102;2023-04-01T07:15:36;1.48;;;0.70;;
79027;SDS011;68427;48.476;19.102;2023-04-01T07:18:05;2.22;;;0.95;;
79027;SDS011;68427;48.476;19.102;2023-04-01T07:20:36;3.47;;;1.40;;
79027;SDS011;68427;48.476;19.102;2023-04-01T07:23:05;2.60;;;1.50;;
79027;SDS011;68427;48.476;19.102;2023-04-01T07:25:41;2.90;;;1.05;;
79027;SDS011;68427;48.476;19.102;2023-04-01T07:28:11;2.40;;;1.10;;
79027;SDS011;68427;48.476;19.102;2023-04-01T07:30:40;1.60;;;0.90;;
79027;SDS011;68427;48.476;19.102;2023-04-01T07:33:16;4.82;;;1.98;;
79027;SDS011;68427;48.476;19.102;2023-04-01T07:35:49;1.30;;;1.13;;
79027;SDS011;68427;48.476;19.102;2023-04-01T07:38:26;2.25;;;0.50;;
79027;SDS011;68427;48.476;19.102;2023-04-01T07:41:02;2.67;;;1.17;;
79027;SDS011;68427;48.476;19.102;2023-04-01T07:43:40;1.13;;;0.65;;
79027;SDS011;68427;48.476;19.102;2023-04-01T07:46:19;0.73;;;0.35;;
79027;SDS011;68427;48.476;19.102;2023-04-01T07:48:56;1.45;;;1.35;;
79027;SDS011;68427;48.476;19.102;2023-04-01T07:51:29;1.50;;;0.75;;
79027;SDS011;68427;48.476;19.102;2023-04-01T07:54:02;2.40;;;0.77;;
79027;SDS011;68427;48.476;19.102;2023-04-01T07:56:36;1.23;;;0.70;;
79027;SDS011;68427;48.476;19.102;2023-04-01T07:59:09;0.70;;;0.60;;
79027;SDS011;68427;48.476;19.102;2023-04-01T08:01:44;1.13;;;1.00;;
79027;SDS011;68427;48.476;19.102;2023-04-01T08:04:26;1.20;;;0.73;;
79027;SDS011;68427;48.476;19.102;2023-04-01T08:07:02;1.75;;;1.23;;
79027;SDS011;68427;48.476;19.102;2023-04-01T08:09:36;2.80;;;0.85;;
79027;SDS011;68427;48.476;19.102;2023-04-01T08:12:12;1.85;;;0.70;;
79027;SDS011;68427;48.476;19.102;2023-04-01T08:14:48;2.45;;;0.82;;
79027;SDS011;68427;48.476;19.102;2023-04-01T08:17:22;1.13;;;0.47;;
79027;SDS011;68427;48.476;19.102;2023-04-01T08:20:00;2.00;;;0.85;;
79027;SDS011;68427;48.476;19.102;2023-04-01T08:22:36;1.73;;;1.02;;
79027;SDS011;68427;48.476;19.102;2023-04-01T08:25:10;1.20;;;0.70;;
79027;SDS011;68427;48.476;19.102;2023-04-01T08:27:41;2.85;;;0.63;;
79027;SDS011;68427;48.476;19.102;2023-04-01T08:30:15;1.67;;;1.15;;
79027;SDS011;68427;48.476;19.102;2023-04-01T08:32:44;1.30;;;0.70;;
79027;SDS011;68427;48.476;19.102;2023-04-01T08:35:17;1.13;;;1.02;;
79027;SDS011;68427;48.476;19.102;2023-04-01T08:37:49;1.65;;;1.10;;
79027;SDS011;68427;48.476;19.102;2023-04-01T08:40:28;0.88;;;0.63;;
79027;SDS011;68427;48.476;19.102;2023-04-01T08:43:07;0.80;;;0.55;;
79027;SDS011;68427;48.476;19.102;2023-04-01T08:48:48;2.08;;;0.50;;
79027;SDS011;68427;48.476;19.102;2023-04-01T08:51:28;0.68;;;0.55;;
79027;SDS011;68427;48.476;19.102;2023-04-01T08:54:18;1.45;;;0.70;;
79027;SDS011;68427;48.476;19.102;2023-04-01T08:56:58;1.42;;;0.60;;
79027;SDS011;68427;48.476;19.102;2023-04-01T08:59:41;2.30;;;1.20;;
79027;SDS011;68427;48.476;19.102;2023-04-01T09:06:00;0.95;;;0.45;;
79027;SDS011;68427;48.476;19.102;2023-04-01T09:08:53;1.45;;;0.52;;
79027;SDS011;68427;48.476;19.102;2023-04-01T09:11:33;1.23;;;0.77;;
79027;SDS011;68427;48.476;19.102;2023-04-01T09:17:33;1.30;;;0.85;;
79027;SDS011;68427;48.476;19.102;2023-04-01T09:20:14;0.90;;;0.63;;
79027;SDS011;68427;48.476;19.102;2023-04-01T09:23:01;0.95;;;0.60;;
79027;SDS011;68427;48.476;19.102;2023-04-01T09:25:48;0.75;;;0.25;;
79027;SDS011;68427;48.476;19.102;2023-04-01T09:36:45;1.92;;;0.57;;
79027;SDS011;68427;48.476;19.102;2023-04-01T09:39:18;2.67;;;0.82;;
79027;SDS011;68427;48.476;19.102;2023-04-01T09:44:53;1.02;;;0.63;;
79027;SDS011;68427;48.476;19.102;2023-04-01T09:47:31;0.95;;;0.85;;
79027;SDS011;68427;48.476;19.102;2023-04-01T09:50:23;2.13;;;0.80;;
79027;SDS011;68427;48.476;19.102;2023-04-01T09:53:01;1.00;;;0.60;;
79027;SDS011;68427;48.476;19.102;2023-04-01T09:55:57;0.82;;;0.77;;
79027;SDS011;68427;48.476;19.102;2023-04-01T09:58:58;1.10;;;0.95;;
79027;SDS011;68427;48.476;19.102;2023-04-01T10:01:54;2.60;;;2.47;;
79027;SDS011;68427;48.476;19.102;2023-04-01T10:04:44;0.50;;;0.40;;
79027;SDS011;68427;48.476;19.102;2023-04-01T10:10:42;0.73;;;0.70;;
79027;SDS011;68427;48.476;19.102;2023-04-01T10:13:30;1.23;;;0.70;;
79027;SDS011;68427;48.476;19.102;2023-04-01T10:16:22;1.13;;;0.70;;
79027;SDS011;68427;48.476;19.102;2023-04-01T10:19:39;1.30;;;1.23;;
79027;SDS011;68427;48.476;19.102;2023-04-01T10:25:19;0.85;;;0.63;;
79027;SDS011;68427;48.476;19.102;2023-04-01T10:28:18;0.63;;;0.63;;
79027;SDS011;68427;48.476;19.102;2023-04-01T10:37:17;0.80;;;0.40;;
79027;SDS011;68427;48.476;19.102;2023-04-01T10:40:19;1.02;;;0.63;;
79027;SDS011;68427;48.476;19.102;2023-04-01T11:01:27;2.42;;;0.68;;
79027;SDS011;68427;48.476;19.102;2023-04-01T11:07:43;1.30;;;0.82;;
79027;SDS011;68427;48.476;19.102;2023-04-01T11:17:10;0.90;;;0.38;;
79027;SDS011;68427;48.476;19.102;2023-04-01T11:22:41;0.60;;;0.57;;
79027;SDS011;68427;48.476;19.102;2023-04-01T11:25:36;1.35;;;0.50;;
79027;SDS011;68427;48.476;19.102;2023-04-01T11:31:23;0.80;;;0.80;;
79027;SDS011;68427;48.476;19.102;2023-04-01T11:34:01;1.23;;;0.55;;
79027;SDS011;68427;48.476;19.102;2023-04-01T11:36:37;0.75;;;0.47;;
79027;SDS011;68427;48.476;19.102;2023-04-01T11:39:14;1.40;;;0.93;;
79027;SDS011;68427;48.476;19.102;2023-04-01T11:41:50;1.20;;;0.47;;
79027;SDS011;68427;48.476;19.102;2023-04-01T11:44:22;0.52;;;0.52;;
79027;SDS011;68427;48.476;19.102;2023-04-01T11:46:56;1.88;;;1.77;;
79027;SDS011;68427;48.476;19.102;2023-04-01T11:49:32;0.60;;;0.52;;
79027;SDS011;68427;48.476;19.102;2023-04-01T11:54:53;0.63;;;0.45;;
79027;SDS011;68427;48.476;19.102;2023-04-01T11:57:43;0.25;;;0.10;;
79027;SDS011;68427;48.476;19.102;2023-04-01T12:03:37;0.88;;;0.43;;
79027;SDS011;68427;48.476;19.102;2023-04-01T12:06:16;0.80;;;0.80;;
79027;SDS011;68427;48.476;19.102;2023-04-01T12:08:50;0.60;;;0.60;;
79027;SDS011;68427;48.476;19.102;2023-04-01T12:11:24;1.05;;;0.43;;
79027;SDS011;68427;48.476;19.102;2023-04-01T12:13:58;2.63;;;1.42;;
79027;SDS011;68427;48.476;19.102;2023-04-01T12:16:38;4.03;;;0.93;;
79027;SDS011;68427;48.476;19.102;2023-04-01T12:19:10;2.28;;;1.05;;
79027;SDS011;68427;48.476;19.102;2023-04-01T12:21:48;1.30;;;0.57;;
79027;SDS011;68427;48.476;19.102;2023-04-01T12:27:19;2.17;;;1.90;;
79027;SDS011;68427;48.476;19.102;2023-04-01T12:35:21;1.40;;;1.30;;
79027;SDS011;68427;48.476;19.102;2023-04-01T12:37:59;0.80;;;0.63;;
79027;SDS011;68427;48.476;19.102;2023-04-01T12:40:39;1.95;;;0.43;;
79027;SDS011;68427;48.476;19.102;2023-04-01T12:43:19;1.50;;;0.77;;
79027;SDS011;68427;48.476;19.102;2023-04-01T12:46:02;0.85;;;0.85;;
79027;SDS011;68427;48.476;19.102;2023-04-01T12:48:42;0.80;;;0.55;;
79027;SDS011;68427;48.476;19.102;2023-04-01T12:51:46;1.10;;;0.98;;
79027;SDS011;68427;48.476;19.102;2023-04-01T12:54:33;1.13;;;0.77;;
79027;SDS011;68427;48.476;19.102;2023-04-01T12:57:25;0.77;;;0.55;;
79027;SDS011;68427;48.476;19.102;2023-04-01T13:00:25;1.25;;;1.25;;
79027;SDS011;68427;48.476;19.102;2023-04-01T13:03:05;1.40;;;0.85;;
79027;SDS011;68427;48.476;19.102;2023-04-01T13:08:45;2.35;;;1.00;;
79027;SDS011;68427;48.476;19.102;2023-04-01T13:11:20;1.92;;;1.08;;
79027;SDS011;68427;48.476;19.102;2023-04-01T13:16:41;1.45;;;0.77;;
79027;SDS011;68427;48.476;19.102;2023-04-01T13:19:14;1.00;;;0.60;;
79027;SDS011;68427;48.476;19.102;2023-04-01T13:21:49;1.85;;;0.98;;
79027;SDS011;68427;48.476;19.102;2023-04-01T13:24:30;1.48;;;1.05;;
79027;SDS011;68427;48.476;19.102;2023-04-01T13:27:07;2.47;;;1.02;;
79027;SDS011;68427;48.476;19.102;2023-04-01T13:29:41;0.90;;;0.90;;
79027;SDS011;68427;48.476;19.102;2023-04-01T13:32:14;2.38;;;0.55;;
79027;SDS011;68427;48.476;19.102;2023-04-01T13:34:52;0.80;;;0.68;;
79027;SDS011;68427;48.476;19.102;2023-04-01T13:37:32;1.15;;;1.15;;
79027;SDS011;68427;48.476;19.102;2023-04-01T13:40:15;0.98;;;0.93;;
79027;SDS011;68427;48.476;19.102;2023-04-01T13:43:04;0.88;;;0.75;;
79027;SDS011;68427;48.476;19.102;2023-04-01T13:45:40;1.05;;;0.73;;
79027;SDS011;68427;48.476;19.102;2023-04-01T13:48:23;1.55;;;0.95;;
79027;SDS011;68427;48.476;19.102;2023-04-01T13:56:48;2.80;;;0.95;;
79027;SDS011;68427;48.476;19.102;2023-04-01T13:59:34;3.15;;;0.82;;
79027;SDS011;68427;48.476;19.102;2023-04-01T14:02:20;1.95;;;1.85;;
79027;SDS011;68427;48.476;19.102;2023-04-01T14:05:09;3.30;;;3.20;;
79027;SDS011;68427;48.476;19.102;2023-04-01T14:07:55;3.38;;;1.60;;
79027;SDS011;68427;48.476;19.102;2023-04-01T14:10:31;2.08;;;1.88;;
79027;SDS011;68427;48.476;19.102;2023-04-01T14:13:07;2.90;;;1.15;;
79027;SDS011;68427;48.476;19.102;2023-04-01T14:15:52;1.13;;;0.98;;
79027;SDS011;68427;48.476;19.102;2023-04-01T14:18:41;2.53;;;1.40;;
79027;SDS011;68427;48.476;19.102;2023-04-01T14:23:49;1.60;;;0.95;;
79027;SDS011;68427;48.476;19.102;2023-04-01T14:29:27;3.92;;;2.60;;
79027;SDS011;68427;48.476;19.102;2023-04-01T14:32:05;3.13;;;2.03;;
79027;SDS011;68427;48.476;19.102;2023-04-01T14:37:31;2.03;;;1.17;;
79027;SDS011;68427;48.476;19.102;2023-04-01T14:40:39;2.25;;;1.33;;
79027;SDS011;68427;48.476;19.102;2023-04-01T14:46:33;3.35;;;1.52;;
79027;SDS011;68427;48.476;19.102;2023-04-01T14:49:22;1.58;;;0.98;;
79027;SDS011;68427;48.476;19.102;2023-04-01T14:51:55;1.25;;;1.08;;
79027;SDS011;68427;48.476;19.102;2023-04-01T14:54:35;1.35;;;1.25;;
79027;SDS011;68427;48.476;19.102;2023-04-01T14:57:05;2.97;;;0.95;;
79027;SDS011;68427;48.476;19.102;2023-04-01T14:59:39;2.67;;;1.58;;
79027;SDS011;68427;48.476;19.102;2023-04-01T15:02:14;3.45;;;1.45;;
79027;SDS011;68427;48.476;19.102;2023-04-01T15:04:57;3.67;;;1.63;;
79027;SDS011;68427;48.476;19.102;2023-04-01T15:13:10;1.40;;;1.30;;
79027;SDS011;68427;48.476;19.102;2023-04-01T15:15:41;1.23;;;1.23;;
79027;SDS011;68427;48.476;19.102;2023-04-01T15:18:19;1.38;;;1.13;;
79027;SDS011;68427;48.476;19.102;2023-04-01T15:23:50;1.90;;;1.40;;
79027;SDS011;68427;48.476;19.102;2023-04-01T15:26:28;2.33;;;0.93;;
79027;SDS011;68427;48.476;19.102;2023-04-01T15:29:11;2.53;;;1.15;;
79027;SDS011;68427;48.476;19.102;2023-04-01T15:31:59;3.50;;;2.17;;
79027;SDS011;68427;48.476;19.102;2023-04-01T15:34:32;4.00;;;2.58;;
79027;SDS011;68427;48.476;19.102;2023-04-01T15:37:07;1.73;;;1.23;;
79027;SDS011;68427;48.476;19.102;2023-04-01T15:39:43;1.88;;;0.75;;
79027;SDS011;68427;48.476;19.102;2023-04-01T15:45:13;4.40;;;1.30;;
79027;SDS011;68427;48.476;19.102;2023-04-01T15:47:44;3.67;;;1.75;;
79027;SDS011;68427;48.476;19.102;2023-04-01T15:50:23;3.13;;;1.80;;
79027;SDS011;68427;48.476;19.102;2023-04-01T15:53:03;3.95;;;3.20;;
79027;SDS011;68427;48.476;19.102;2023-04-01T15:55:42;3.95;;;3.42;;
79027;SDS011;68427;48.476;19.102;2023-04-01T15:58:22;3.17;;;2.88;;
79027;SDS011;68427;48.476;19.102;2023-04-01T16:01:02;1.02;;;0.93;;
79027;SDS011;68427;48.476;19.102;2023-04-01T16:03:38;1.67;;;1.58;;
79027;SDS011;68427;48.476;19.102;2023-04-01T16:06:13;2.83;;;2.72;;
79027;SDS011;68427;48.476;19.102;2023-04-01T16:08:56;8.77;;;5.10;;
79027;SDS011;68427;48.476;19.102;2023-04-01T16:11:43;8.75;;;7.15;;
79027;SDS011;68427;48.476;19.102;2023-04-01T16:14:20;6.00;;;2.53;;
79027;SDS011;68427;48.476;19.102;2023-04-01T16:16:58;3.95;;;1.73;;
79027;SDS011;68427;48.476;19.102;2023-04-01T16:19:40;4.55;;;2.67;;
79027;SDS011;68427;48.476;19.102;2023-04-01T16:22:14;4.72;;;4.32;;
79027;SDS011;68427;48.476;19.102;2023-04-01T16:24:48;1.70;;;0.90;;
79027;SDS011;68427;48.476;19.102;2023-04-01T16:27:24;2.47;;;1.40;;
79027;SDS011;68427;48.476;19.102;2023-04-01T16:29:55;2.88;;;1.33;;
79027;SDS011;68427;48.476;19.102;2023-04-01T16:32:29;4.57;;;4.28;;
79027;SDS011;68427;48.476;19.102;2023-04-01T16:35:05;0.82;;;0.38;;
79027;SDS011;68427;48.476;19.102;2023-04-01T16:37:47;3.78;;;2.83;;
79027;SDS011;68427;48.476;19.102;2023-04-01T16:40:22;1.35;;;1.02;;
79027;SDS011;68427;48.476;19.102;2023-04-01T16:43:05;1.20;;;0.93;;
79027;SDS011;68427;48.476;19.102;2023-04-01T16:45:36;1.77;;;0.93;;
79027;SDS011;68427;48.476;19.102;2023-04-01T16:48:11;2.25;;;2.05;;
79027;SDS011;68427;48.476;19.102;2023-04-01T16:50:48;1.90;;;1.48;;
79027;SDS011;68427;48.476;19.102;2023-04-01T16:53:19;1.48;;;1.30;;
79027;SDS011;68427;48.476;19.102;2023-04-01T16:56:02;3.60;;;3.38;;
79027;SDS011;68427;48.476;19.102;2023-04-01T16:58:34;1.83;;;1.13;;
79027;SDS011;68427;48.476;19.102;2023-04-01T17:01:03;3.42;;;1.45;;
79027;SDS011;68427;48.476;19.102;2023-04-01T17:03:32;2.08;;;1.13;;
79027;SDS011;68427;48.476;19.102;2023-04-01T17:06:07;2.60;;;1.73;;
79027;SDS011;68427;48.476;19.102;2023-04-01T17:08:52;3.63;;;2.22;;
79027;SDS011;68427;48.476;19.102;2023-04-01T17:11:29;18.70;;;11.32;;
79027;SDS011;68427;48.476;19.102;2023-04-01T17:14:03;41.80;;;18.65;;
79027;SDS011;68427;48.476;19.102;2023-04-01T17:16:56;41.45;;;18.48;;
79027;SDS011;68427;48.476;19.102;2023-04-01T17:19:37;21.10;;;11.90;;